F/V Atalante — FVRQ — position and weather

sailwx.info

Track history (hours):
 
Tides and Currents Weather Stations Pressure Air Temp Water Temp Dewpoint Dewpoint Depression Visibility Wind Speed Wind Dir Waves Ship Positions

F/V Atalante

Last reported at 2016-Aug-24 00:17 UTC. Time now 2016-Aug-25 23:40 UTC.
Position N 46°01' W 004°45'.

Length 21 m; draft 3.9 m.

Type: . MMSI: 228854000.

Date/timePositionNaut miles runAvg speedWind from/ knotsBaromVisibWave heightAir tempDewpointWater temp
2016-Aug-24 00:17N 46°01' W 004°45'3 1.4
2016-Aug-23 22:24N 46°03' W 004°42'3 2.8
2016-Aug-23 21:11N 46°04' W 004°47'0 0.8
2016-Aug-23 20:34N 46°04' W 004°47'5 3.6
2016-Aug-23 19:18N 46°03' W 004°53'7 9.3
2016-Aug-23 18:32N 46°01' W 005°03'10 9.6
2016-Aug-23 17:31N 45°56' W 005°15'85 2.0
2016-Aug-21 22:29N 47°20' W 005°30'1410.1
2016-Aug-21 21:04N 47°26' W 005°11'17 9.7
2016-Aug-21 19:20N 47°33' W 004°48'39 7.8
2016-Aug-21 14:20N 47°24' W 003°52'6 7.8
2016-Aug-21 13:33N 47°22' W 003°43'8 7.8
2016-Aug-21 12:33N 47°19' W 003°33'8 8.1
2016-Aug-21 11:33N 47°17' W 003°21'9 8.6
2016-Aug-21 10:33N 47°14' W 003°09'9 9.0
2016-Aug-21 09:33N 47°16' W 002°56'9 9.0
2016-Aug-21 08:33N 47°18' W 002°43'  
2016-Aug-18 20:33N 47°21' W 002°31'0 0.0
2016-Aug-18 19:33N 47°21' W 002°31'0 0.0
2016-Aug-18 18:27N 47°21' W 002°31'0 0.0
2016-Aug-18 17:33N 47°21' W 002°31'1 0.5
2016-Aug-18 16:33N 47°20' W 002°31'1010.1
2016-Aug-18 15:32N 47°15' W 002°44'1010.5
2016-Aug-18 14:33N 47°09' W 002°56'1010.2
2016-Aug-18 13:33N 47°02' W 003°08'86 2.8
2016-Aug-17 06:25N 46°06' W 004°42'105 3.3
2016-Aug-15 22:20N 44°38' W 003°21'53 4.9
2016-Aug-15 11:20N 45°15' W 004°15'0 0.5
2016-Aug-15 10:30N 45°15' W 004°15'8 5.4
2016-Aug-15 09:06N 45°08' W 004°11'23 0.9
2016-Aug-14 06:05N 44°48' W 003°54'1 0.4
2016-Aug-14 04:33N 44°48' W 003°54'3 3.0
2016-Aug-14 03:31N 44°46' W 003°56'2 2.2
2016-Aug-14 02:31N 44°48' W 003°55'  
Track history (hours):
 
Tides and Currents Weather Stations Pressure Air Temp Water Temp Dewpoint Dewpoint Depression Visibility Wind Speed Wind Dir Waves Ship Positions

F/V Atalante

Last reported at 2016-Aug-24 00:17 UTC. Time now 2016-Aug-25 23:40 UTC.
Position N 46°01' W 004°45'.

Length 21 m; draft 3.9 m.

Type: . MMSI: 228854000.

Date/timePositionNaut miles runAvg speedWind from/ knotsBaromVisibWave heightAir tempDewpointWater temp
2016-Aug-24 00:17N 46°01' W 004°45'3 1.4
2016-Aug-23 22:24N 46°03' W 004°42'3 2.8
2016-Aug-23 21:11N 46°04' W 004°47'0 0.8
2016-Aug-23 20:34N 46°04' W 004°47'5 3.6
2016-Aug-23 19:18N 46°03' W 004°53'7 9.3
2016-Aug-23 18:32N 46°01' W 005°03'10 9.6
2016-Aug-23 17:31N 45°56' W 005°15'85 2.0
2016-Aug-21 22:29N 47°20' W 005°30'1410.1
2016-Aug-21 21:04N 47°26' W 005°11'17 9.7
2016-Aug-21 19:20N 47°33' W 004°48'39 7.8
2016-Aug-21 14:20N 47°24' W 003°52'6 7.8
2016-Aug-21 13:33N 47°22' W 003°43'8 7.8
2016-Aug-21 12:33N 47°19' W 003°33'8 8.1
2016-Aug-21 11:33N 47°17' W 003°21'9 8.6
2016-Aug-21 10:33N 47°14' W 003°09'9 9.0
2016-Aug-21 09:33N 47°16' W 002°56'9 9.0
2016-Aug-21 08:33N 47°18' W 002°43'  
2016-Aug-18 20:33N 47°21' W 002°31'0 0.0
2016-Aug-18 19:33N 47°21' W 002°31'0 0.0
2016-Aug-18 18:27N 47°21' W 002°31'0 0.0
2016-Aug-18 17:33N 47°21' W 002°31'1 0.5
2016-Aug-18 16:33N 47°20' W 002°31'1010.1
2016-Aug-18 15:32N 47°15' W 002°44'1010.5
2016-Aug-18 14:33N 47°09' W 002°56'1010.2
2016-Aug-18 13:33N 47°02' W 003°08'86 2.8
2016-Aug-17 06:25N 46°06' W 004°42'105 3.3
2016-Aug-15 22:20N 44°38' W 003°21'53 4.9
2016-Aug-15 11:20N 45°15' W 004°15'0 0.5
2016-Aug-15 10:30N 45°15' W 004°15'8 5.4
2016-Aug-15 09:06N 45°08' W 004°11'23 0.9
2016-Aug-14 06:05N 44°48' W 003°54'1 0.4
2016-Aug-14 04:33N 44°48' W 003°54'3 3.0
2016-Aug-14 03:31N 44°46' W 003°56'2 2.2
2016-Aug-14 02:31N 44°48' W 003°55'  

Dump ship's entire track history